Time;durP1;ratioP1;P1;durP2;ratioP2;P2;SDS_P1;SDS_P2;PMS_P1;PMS_P2;Temp;Humidity;BMP_temperature;BMP_pressure;BME280_temperature;BME280_humidity;BME280_pressure;Samples;Min_cycle;Max_cycle;Signal;HPM_P1;HPM_P2
2022/12/03 00:01:01;;;;;;;8.20;5.70;;;-1.10;99.90;;;;;;4952270;28;20263;-81
2022/12/03 00:03:27;;;;;;;6.00;3.87;;;0.60;99.90;;;;;;4967089;28;20272;-81
2022/12/03 00:05:53;;;;;;;8.53;5.90;;;-1.10;99.90;;;;;;4964957;28;20189;-81
2022/12/03 00:08:18;;;;;;;11.43;4.73;;;-1.10;99.90;;;;;;4962978;28;20215;-81
2022/12/03 00:10:44;;;;;;;10.90;5.97;;;-1.10;99.90;;;;;;4966279;28;20186;-81
2022/12/03 00:13:10;;;;;;;10.13;7.70;;;-1.10;99.90;;;;;;4966436;28;20192;-81
2022/12/03 00:15:35;;;;;;;33.90;9.30;;;-1.20;99.90;;;;;;4949156;28;20196;-81
2022/12/03 00:18:01;;;;;;;9.30;6.47;;;1.60;99.90;;;;;;4965910;28;20699;-81
2022/12/03 00:20:26;;;;;;;10.60;5.67;;;-1.10;99.90;;;;;;4962916;28;20221;-81
2022/12/03 00:22:52;;;;;;;12.03;5.40;;;-1.10;99.90;;;;;;4947760;28;20190;-81
2022/12/03 00:25:17;;;;;;;16.10;6.23;;;-1.10;99.90;;;;;;4963707;28;20229;-81
2022/12/03 00:27:43;;;;;;;6.60;4.57;;;-1.10;99.90;;;;;;4938912;28;20188;-81
2022/12/03 00:30:10;;;;;;;9.60;6.13;;;-0.40;99.90;;;;;;4958417;28;20307;-80
2022/12/03 00:32:35;;;;;;;8.20;3.60;;;-1.10;99.90;;;;;;4980106;28;20227;-80
2022/12/03 00:35:01;;;;;;;5.00;4.47;;;-1.10;99.90;;;;;;4967361;28;20187;-81
2022/12/03 00:37:26;;;;;;;16.73;5.57;;;-1.10;99.90;;;;;;4985424;28;20222;-81
2022/12/03 00:39:52;;;;;;;4.00;3.70;;;-1.30;99.90;;;;;;4960847;28;20224;-81
2022/12/03 00:42:18;;;;;;;3.60;3.20;;;-1.10;99.90;;;;;;4953355;28;20184;-82
2022/12/03 00:44:43;;;;;;;5.10;4.53;;;-1.10;99.90;;;;;;4991723;28;20180;-81
2022/12/03 00:47:09;;;;;;;8.80;5.13;;;-1.10;99.90;;;;;;4993048;28;20189;-81
2022/12/03 00:49:35;;;;;;;6.03;4.67;;;0.40;99.90;;;;;;4986848;28;20544;-81
2022/12/03 00:52:00;;;;;;;4.07;3.73;;;-1.00;99.90;;;;;;4978067;28;20524;-81
2022/12/03 00:54:26;;;;;;;4.63;3.83;;;-1.00;99.90;;;;;;4978126;28;20304;-81
2022/12/03 00:56:51;;;;;;;6.20;3.83;;;-1.00;99.90;;;;;;4978156;28;20691;-81
2022/12/03 00:59:17;;;;;;;4.07;3.67;;;-1.00;99.90;;;;;;4977835;28;20186;-81
2022/12/03 01:01:43;;;;;;;6.17;3.87;;;0.00;99.90;;;;;;4977402;28;20175;-82
2022/12/03 01:04:08;;;;;;;12.70;5.90;;;-1.00;99.90;;;;;;4977485;28;20174;-81
2022/12/03 01:06:34;;;;;;;6.53;3.53;;;-1.00;99.90;;;;;;4960178;28;20658;-81
2022/12/03 01:08:59;;;;;;;6.03;4.50;;;-1.10;99.90;;;;;;4959796;28;20210;-81
2022/12/03 01:11:37;;;;;;;5.33;3.40;;;-1.10;99.90;;;;;;4977186;28;20638;-82
2022/12/03 01:14:04;;;;;;;4.17;3.73;;;-1.10;99.90;;;;;;4961414;28;20534;-81
2022/12/03 01:16:30;;;;;;;4.30;3.73;;;;;;;;;;4977090;28;20209;-81
2022/12/03 01:18:56;;;;;;;4.90;3.53;;;-1.00;99.90;;;;;;4977380;28;20322;-81
2022/12/03 01:21:21;;;;;;;6.43;4.20;;;-0.80;99.90;;;;;;4959958;28;20184;-81
2022/12/03 01:23:47;;;;;;;3.73;2.73;;;-1.20;99.90;;;;;;4959751;28;20264;-81
2022/12/03 01:26:13;;;;;;;6.53;2.73;;;;;;;;;;4976920;28;20594;-81
2022/12/03 01:28:40;;;;;;;2.17;2.00;;;;;;;;;;4976919;28;20178;-82
2022/12/03 01:33:51;;;;;;;4.80;4.03;;;-1.10;99.90;;;;;;4977066;28;20189;-82
2022/12/03 01:36:17;;;;;;;5.60;3.20;;;-1.10;99.90;;;;;;4959658;28;20272;-82
2022/12/03 01:38:42;;;;;;;4.60;4.00;;;-1.10;99.90;;;;;;4975381;28;20251;-82
2022/12/03 01:41:08;;;;;;;8.73;4.37;;;;;;;;;;4959783;28;20200;-82
2022/12/03 01:43:34;;;;;;;6.67;3.40;;;-1.00;99.90;;;;;;4976625;28;20225;-82
2022/12/03 01:46:00;;;;;;;5.80;3.83;;;-1.10;99.90;;;;;;4976774;28;20179;-82
2022/12/03 01:48:26;;;;;;;7.83;4.83;;;-1.10;99.90;;;;;;4976709;28;20212;-82
2022/12/03 01:50:52;;;;;;;15.90;3.73;;;-1.00;99.90;;;;;;4943296;28;20193;-82
2022/12/03 01:53:18;;;;;;;5.80;3.80;;;;;;;;;;4976564;28;20197;-82
2022/12/03 01:55:44;;;;;;;2.87;2.67;;;-1.00;99.90;;;;;;4958547;28;20740;-82
2022/12/03 01:58:14;;;;;;;5.37;4.57;;;-1.00;99.90;;;;;;4959382;28;20247;-82
2022/12/03 02:00:40;;;;;;;5.37;3.27;;;2.10;99.90;;;;;;4958989;28;20600;-82
2022/12/03 02:03:18;;;;;;;5.07;4.07;;;-1.00;99.90;;;;;;4943282;28;20186;-81
2022/12/03 02:05:43;;;;;;;4.60;2.53;;;-1.00;99.90;;;;;;4976121;28;20654;-81
2022/12/03 02:08:32;;;;;;;10.07;5.33;;;-1.10;99.90;;;;;;4976397;28;20186;-81
2022/12/03 02:11:03;;;;;;;3.87;3.57;;;-0.40;99.90;;;;;;4976574;28;20214;-81
2022/12/03 02:13:29;;;;;;;5.67;3.40;;;0.50;99.90;;;;;;4976224;28;20686;-82
2022/12/03 02:15:55;;;;;;;4.63;3.97;;;-0.90;99.90;;;;;;4976373;28;20176;-81
2022/12/03 02:18:20;;;;;;;9.80;2.80;;;0.60;99.90;;;;;;4958766;28;20581;-81
2022/12/03 02:21:04;;;;;;;5.20;4.70;;;-1.00;99.90;;;;;;4976317;28;20560;-81
2022/12/03 02:23:50;;;;;;;8.53;4.83;;;-0.90;99.90;;;;;;4975900;28;20193;-82
2022/12/03 02:26:16;;;;;;;8.83;4.37;;;-0.90;99.90;;;;;;4958371;28;20274;-80
2022/12/03 02:28:42;;;;;;;3.50;3.23;;;-0.90;99.90;;;;;;4975703;28;20660;-81
2022/12/03 02:31:07;;;;;;;5.73;4.67;;;-0.40;99.90;;;;;;4975884;28;20176;-81
2022/12/03 02:33:33;;;;;;;9.63;4.43;;;-0.90;99.90;;;;;;4958562;28;20191;-82
2022/12/03 02:35:59;;;;;;;12.13;5.93;;;-0.90;99.90;;;;;;4975663;28;20187;-81
2022/12/03 02:38:28;;;;;;;5.17;4.13;;;-1.00;99.90;;;;;;4975810;28;20291;-81
2022/12/03 02:40:58;;;;;;;5.10;3.50;;;-0.90;99.90;;;;;;4958240;28;20186;-80
2022/12/03 02:43:24;;;;;;;2.97;2.77;;;-0.90;99.90;;;;;;4975696;28;20174;-81
2022/12/03 02:45:53;;;;;;;8.33;4.90;;;-0.90;99.90;;;;;;4975566;28;20179;-81
2022/12/03 02:48:27;;;;;;;11.80;4.23;;;-0.90;99.90;;;;;;4975779;28;20207;-80
2022/12/03 02:50:56;;;;;;;3.57;3.23;;;-0.90;99.90;;;;;;4974994;28;20178;-80
2022/12/03 02:53:27;;;;;;;8.10;3.80;;;-1.00;99.90;;;;;;4975565;28;20180;-81
2022/12/03 02:55:54;;;;;;;4.17;3.77;;;0.50;99.90;;;;;;4975706;28;20266;-81
2022/12/03 02:58:21;;;;;;;5.77;4.10;;;-0.80;99.90;;;;;;4958220;28;20225;-81
2022/12/03 03:00:48;;;;;;;4.90;3.50;;;-0.90;99.90;;;;;;4975505;28;20183;-80
2022/12/03 03:03:16;;;;;;;2.93;2.63;;;-0.90;99.90;;;;;;4957999;28;20189;-81
2022/12/03 03:05:43;;;;;;;6.30;3.57;;;1.80;99.90;;;;;;4975243;28;20189;-81
2022/12/03 03:08:10;;;;;;;4.97;2.90;;;;;;;;;;4958206;28;20733;-80
2022/12/03 03:10:37;;;;;;;4.87;3.23;;;-0.80;99.90;;;;;;4975373;28;20177;-82
2022/12/03 03:13:07;;;;;;;11.40;5.17;;;1.50;99.90;;;;;;4975367;28;20220;-81
2022/12/03 03:15:35;;;;;;;4.63;3.93;;;-0.90;99.90;;;;;;4975040;28;20178;-81
2022/12/03 03:18:01;;;;;;;4.80;2.93;;;-1.00;99.90;;;;;;4974994;28;20222;-80
2022/12/03 03:20:27;;;;;;;3.40;2.90;;;;;;;;;;4975134;28;20190;-81
2022/12/03 03:22:52;;;;;;;2.47;2.37;;;-0.90;99.90;;;;;;4957397;28;20178;-80
2022/12/03 03:25:23;;;;;;;5.57;5.07;;;-0.90;99.90;;;;;;4974941;28;20607;-80
2022/12/03 03:27:49;;;;;;;4.93;4.47;;;1.10;99.90;;;;;;4975009;28;20179;-80
2022/12/03 03:30:14;;;;;;;5.73;3.50;;;-0.90;99.90;;;;;;4975073;28;20191;-81
2022/12/03 03:32:41;;;;;;;10.53;5.57;;;-0.80;99.90;;;;;;4957381;28;20193;-81
2022/12/03 03:35:09;;;;;;;3.37;3.07;;;-0.80;99.90;;;;;;4957578;28;20184;-81
2022/12/03 03:37:35;;;;;;;3.30;3.00;;;-0.90;99.90;;;;;;4974710;28;20201;-81
2022/12/03 03:40:01;;;;;;;3.63;3.17;;;-0.90;99.90;;;;;;4957524;28;20191;-81
2022/12/03 03:42:27;;;;;;;8.93;3.47;;;-0.90;99.90;;;;;;4975113;28;20258;-80
2022/12/03 03:44:53;;;;;;;4.87;4.17;;;0.40;99.90;;;;;;4941484;28;20208;-81
2022/12/03 03:47:19;;;;;;;5.90;3.47;;;-0.30;99.90;;;;;;4957512;28;20277;-81
2022/12/03 03:49:46;;;;;;;10.70;3.43;;;;;;;;;;4974324;28;20183;-81
2022/12/03 03:52:12;;;;;;;7.93;5.43;;;-0.80;99.90;;;;;;4974352;28;20205;-81
2022/12/03 03:54:38;;;;;;;5.67;4.73;;;-0.80;99.90;;;;;;4974513;28;20322;-80
2022/12/03 03:57:04;;;;;;;7.80;4.47;;;-0.80;99.90;;;;;;4956690;28;20217;-80
2022/12/03 03:59:30;;;;;;;3.43;2.50;;;-0.80;99.90;;;;;;4974547;28;20655;-80
2022/12/03 04:01:55;;;;;;;3.43;3.13;;;1.20;99.90;;;;;;4973540;28;20263;-80
2022/12/03 04:04:23;;;;;;;8.70;6.33;;;-0.70;99.90;;;;;;4974346;28;20178;-80
2022/12/03 04:06:49;;;;;;;4.50;4.07;;;-0.80;99.90;;;;;;4973958;28;20204;-81
2022/12/03 04:09:14;;;;;;;3.20;3.00;;;-0.50;99.90;;;;;;4974721;28;20199;-81
2022/12/03 04:14:24;;;;;;;4.87;3.83;;;-0.70;99.90;;;;;;4974333;28;20233;-80
2022/12/03 04:16:50;;;;;;;10.30;4.43;;;1.20;99.90;;;;;;4974182;28;20202;-80
2022/12/03 04:19:16;;;;;;;7.60;3.87;;;0.70;99.90;;;;;;4974095;28;20638;-81
2022/12/03 04:24:26;;;;;;;8.43;5.40;;;-0.70;99.90;;;;;;4974209;28;20200;-80
2022/12/03 04:29:36;;;;;;;8.30;4.50;;;-0.80;99.90;;;;;;4959614;28;20203;-80
2022/12/03 04:37:29;;;;;;;4.33;3.90;;;0.10;99.90;;;;;;4959415;28;20235;-80
2022/12/03 04:39:54;;;;;;;2.53;2.37;;;0.40;99.90;;;;;;4974052;28;20190;-80
2022/12/03 04:42:20;;;;;;;9.53;4.00;;;-0.80;99.90;;;;;;4973906;28;20185;-80
2022/12/03 04:44:48;;;;;;;5.03;4.47;;;-0.70;99.90;;;;;;4971888;28;20198;-81
2022/12/03 04:47:18;;;;;;;4.10;3.80;;;0.20;99.90;;;;;;4967861;28;20270;-81
2022/12/03 04:49:46;;;;;;;5.40;4.90;;;-0.70;99.90;;;;;;4961411;28;20190;-80
2022/12/03 04:52:13;;;;;;;7.07;3.93;;;-0.70;99.90;;;;;;4954518;29;20183;-81
2022/12/03 04:54:40;;;;;;;7.87;5.73;;;-0.70;99.90;;;;;;4954498;29;20234;-81
2022/12/03 04:57:06;;;;;;;5.70;3.87;;;-0.70;99.90;;;;;;4937043;29;20208;-80
2022/12/03 04:59:33;;;;;;;4.87;3.80;;;-0.30;99.90;;;;;;4954694;29;20194;-80
2022/12/03 05:01:58;;;;;;;6.53;4.40;;;-0.70;99.90;;;;;;4953251;28;20207;-81
2022/12/03 05:04:24;;;;;;;10.67;5.13;;;-0.60;99.90;;;;;;4973164;28;20686;-80
2022/12/03 05:06:50;;;;;;;6.77;5.00;;;;;;;;;;4989363;28;20196;-80
2022/12/03 05:09:16;;;;;;;6.17;4.43;;;-0.60;99.90;;;;;;4956341;28;20192;-80
2022/12/03 05:11:42;;;;;;;12.03;3.90;;;0.80;99.90;;;;;;4973929;28;20636;-81
2022/12/03 05:14:08;;;;;;;3.70;3.33;;;-0.60;99.90;;;;;;4976977;28;20648;-81
2022/12/03 05:16:34;;;;;;;4.50;4.10;;;;;;;;;;4977245;28;20579;-81
2022/12/03 05:19:00;;;;;;;5.07;4.70;;;-0.60;99.90;;;;;;4959895;28;20194;-80
2022/12/03 05:21:26;;;;;;;11.83;4.37;;;0.00;99.90;;;;;;4959960;28;20180;-80
2022/12/03 05:23:51;;;;;;;10.27;5.70;;;-0.70;99.90;;;;;;4976747;28;20547;-81
2022/12/03 05:26:17;;;;;;;13.73;6.27;;;2.20;99.90;;;;;;4977069;28;20586;-81
2022/12/03 05:28:44;;;;;;;6.40;5.40;;;;;;;;;;4960046;28;20233;-81
2022/12/03 05:31:09;;;;;;;3.10;2.90;;;-0.60;99.90;;;;;;4959330;28;20193;-81
2022/12/03 05:33:35;;;;;;;5.87;4.63;;;-0.60;99.90;;;;;;4927851;28;20192;-80
2022/12/03 05:36:00;;;;;;;5.27;4.67;;;-0.60;99.90;;;;;;4959198;28;20186;-81
2022/12/03 05:38:26;;;;;;;4.13;3.77;;;-0.60;99.90;;;;;;4976707;28;20695;-81
2022/12/03 05:40:51;;;;;;;13.67;5.70;;;-0.50;99.90;;;;;;4959612;28;20205;-80
2022/12/03 05:43:17;;;;;;;8.83;4.30;;;-0.60;99.90;;;;;;4959795;28;20266;-80
2022/12/03 05:45:43;;;;;;;14.77;5.10;;;-0.70;99.90;;;;;;4976749;28;20657;-80
2022/12/03 05:48:11;;;;;;;10.73;5.70;;;-0.50;99.90;;;;;;4976428;28;20186;-80
2022/12/03 05:50:38;;;;;;;5.63;4.03;;;-0.50;99.90;;;;;;4975742;28;20192;-81
2022/12/03 05:53:04;;;;;;;5.07;4.33;;;-0.60;99.90;;;;;;4948723;28;20251;-81
2022/12/03 05:55:31;;;;;;;9.40;4.73;;;-0.50;99.90;;;;;;4973421;28;20702;-82
2022/12/03 05:57:56;;;;;;;12.53;5.03;;;-0.50;99.90;;;;;;4957516;28;20204;-82
2022/12/03 06:00:23;;;;;;;19.40;5.60;;;-0.60;99.90;;;;;;4958338;28;20194;-82
2022/12/03 06:02:49;;;;;;;7.83;4.80;;;-0.60;99.90;;;;;;4972965;28;20185;-82
2022/12/03 06:05:16;;;;;;;5.27;4.37;;;-0.50;99.90;;;;;;4975694;28;20197;-81
2022/12/03 06:07:41;;;;;;;5.13;3.83;;;-0.50;99.90;;;;;;4976176;28;20192;-80
2022/12/03 06:10:09;;;;;;;7.33;4.50;;;2.00;99.90;;;;;;4942923;28;20193;-81
2022/12/03 06:12:35;;;;;;;5.17;4.10;;;;;;;;;;4958829;28;20246;-81
2022/12/03 06:15:01;;;;;;;5.40;3.77;;;-0.50;99.90;;;;;;4958814;28;20188;-82
2022/12/03 06:17:26;;;;;;;12.00;5.87;;;-0.50;99.90;;;;;;4976056;28;20214;-82
2022/12/03 06:19:52;;;;;;;6.93;5.37;;;-0.50;99.90;;;;;;4975804;28;20222;-82
2022/12/03 06:22:18;;;;;;;26.93;7.57;;;-0.10;99.90;;;;;;4975831;28;20269;-82
2022/12/03 06:24:44;;;;;;;5.33;4.80;;;-0.40;99.90;;;;;;4975339;28;20739;-81
2022/12/03 06:27:10;;;;;;;10.80;5.07;;;1.20;99.90;;;;;;4975402;28;20218;-82
2022/12/03 06:29:36;;;;;;;10.30;4.50;;;-0.40;99.90;;;;;;4958394;28;20549;-82
2022/12/03 06:32:03;;;;;;;7.87;5.27;;;-0.60;99.90;;;;;;4975737;28;20177;-82
2022/12/03 06:34:29;;;;;;;7.97;6.07;;;;;;;;;;4974460;28;20261;-82
2022/12/03 06:36:55;;;;;;;8.90;5.73;;;-0.40;99.90;;;;;;4970784;28;20240;-81
2022/12/03 06:39:21;;;;;;;11.07;6.30;;;-0.40;99.90;;;;;;4966238;28;20215;-83
2022/12/03 06:41:47;;;;;;;11.27;6.30;;;-0.40;99.90;;;;;;4953632;28;20183;-82
2022/12/03 06:44:13;;;;;;;12.57;6.03;;;-0.40;99.90;;;;;;4937759;28;20647;-82
2022/12/03 06:46:39;;;;;;;12.33;4.27;;;1.60;99.90;;;;;;4970389;28;20226;-83
2022/12/03 06:49:04;;;;;;;11.10;5.00;;;2.00;99.90;;;;;;4975568;28;20662;-82
2022/12/03 06:51:30;;;;;;;8.37;5.33;;;-0.40;99.90;;;;;;4975399;28;20266;-82
2022/12/03 06:53:56;;;;;;;15.20;6.97;;;-0.40;99.90;;;;;;4958612;28;20248;-82
2022/12/03 06:56:21;;;;;;;9.00;4.90;;;-0.30;99.90;;;;;;4975857;28;20592;-82
2022/12/03 06:58:47;;;;;;;4.53;4.10;;;-0.30;99.90;;;;;;4959727;28;20186;-79
2022/12/03 07:01:13;;;;;;;8.57;3.93;;;-0.30;99.90;;;;;;4959691;28;20774;-81
2022/12/03 07:03:39;;;;;;;20.50;5.17;;;-0.30;99.90;;;;;;4943696;28;20195;-81
2022/12/03 07:06:05;;;;;;;7.27;3.43;;;-0.30;99.90;;;;;;4957700;28;20189;-81
2022/12/03 07:08:31;;;;;;;9.83;6.40;;;;;;;;;;4959933;28;20192;-81
2022/12/03 07:10:57;;;;;;;13.73;5.77;;;-0.20;99.90;;;;;;4978478;28;20240;-82
2022/12/03 07:13:22;;;;;;;12.67;7.10;;;-0.30;99.90;;;;;;4977998;28;20189;-81
2022/12/03 07:15:48;;;;;;;6.60;5.67;;;-0.30;99.90;;;;;;4983804;28;20190;-81
2022/12/03 07:18:13;;;;;;;15.13;6.13;;;-0.30;99.90;;;;;;4987812;28;20232;-81
2022/12/03 07:20:39;;;;;;;22.87;6.13;;;-0.20;99.90;;;;;;4970201;28;20199;-82
2022/12/03 07:23:05;;;;;;;13.00;8.20;;;1.00;99.90;;;;;;4957014;28;20653;-81
2022/12/03 07:25:30;;;;;;;40.47;8.10;;;1.60;99.90;;;;;;4971759;28;20237;-81
2022/12/03 07:27:56;;;;;;;9.70;6.47;;;-0.20;99.90;;;;;;4987083;28;20192;-81
2022/12/03 07:30:23;;;;;;;12.17;5.00;;;1.30;99.90;;;;;;4993294;28;20674;-82
2022/12/03 07:32:49;;;;;;;7.87;5.43;;;;;;;;;;4967858;28;20179;-80
2022/12/03 07:35:14;;;;;;;7.87;5.43;;;-0.20;99.90;;;;;;4987549;28;20198;-81
2022/12/03 07:37:40;;;;;;;15.00;6.33;;;-0.30;99.90;;;;;;4989890;28;20220;-80
2022/12/03 07:40:06;;;;;;;16.87;7.93;;;1.60;99.90;;;;;;4983156;28;20562;-83
2022/12/03 07:42:32;;;;;;;5.80;4.67;;;-0.10;99.90;;;;;;4964835;28;20219;-82
2022/12/03 07:44:58;;;;;;;5.17;3.77;;;1.70;99.90;;;;;;4947716;28;20221;-83
2022/12/03 07:47:23;;;;;;;5.77;3.00;;;-0.20;99.90;;;;;;4949308;28;20656;-82
2022/12/03 07:49:49;;;;;;;6.63;5.03;;;-0.10;99.90;;;;;;4946010;28;20303;-82
2022/12/03 07:52:14;;;;;;;16.43;7.93;;;-0.10;99.90;;;;;;4948172;28;20220;-82
2022/12/03 07:54:40;;;;;;;13.20;7.17;;;-0.20;99.90;;;;;;4946056;28;20316;-82
2022/12/03 07:57:06;;;;;;;22.43;6.80;;;-0.10;99.90;;;;;;4950537;28;20568;-82
2022/12/03 07:59:31;;;;;;;11.63;6.07;;;-0.10;99.90;;;;;;4945804;28;20285;-82
2022/12/03 08:01:57;;;;;;;6.73;5.00;;;0.00;99.90;;;;;;4948951;28;20652;-82
2022/12/03 08:04:23;;;;;;;14.67;4.67;;;1.50;99.90;;;;;;4960052;28;20186;-82
2022/12/03 08:06:48;;;;;;;21.60;6.03;;;1.50;99.90;;;;;;4967551;28;20194;-82
2022/12/03 08:09:15;;;;;;;11.30;7.07;;;;;;;;;;4935053;28;20195;-82
2022/12/03 08:11:41;;;;;;;10.67;6.30;;;;;;;;;;4962347;28;20209;-82
2022/12/03 08:14:12;;;;;;;12.87;5.17;;;0.10;99.90;;;;;;4959234;28;20677;-82
2022/12/03 08:16:39;;;;;;;7.80;5.70;;;0.10;99.90;;;;;;4941853;28;20191;-81
2022/12/03 08:19:10;;;;;;;12.83;7.43;;;0.10;99.90;;;;;;4963990;28;20619;-82
2022/12/03 08:21:36;;;;;;;11.77;5.77;;;2.00;99.90;;;;;;4968738;28;20186;-81
2022/12/03 08:24:22;;;;;;;20.67;5.90;;;0.10;99.90;;;;;;4968595;28;20189;-82
2022/12/03 08:26:48;;;;;;;18.20;6.23;;;1.00;99.90;;;;;;4963182;28;20282;-81
2022/12/03 08:29:18;;;;;;;11.00;5.83;;;0.20;99.90;;;;;;4942982;28;20187;-81
2022/12/03 08:31:50;;;;;;;6.70;5.33;;;0.10;99.90;;;;;;4950845;28;20185;-82
2022/12/03 08:34:20;;;;;;;6.73;5.47;;;1.10;99.90;;;;;;4971273;28;20182;-82
2022/12/03 08:36:49;;;;;;;9.23;5.33;;;2.90;99.90;;;;;;4969654;28;20290;-82
2022/12/03 08:39:33;;;;;;;12.37;6.60;;;3.00;99.90;;;;;;4971587;28;20182;-81
2022/12/03 08:44:57;;;;;;;13.30;6.87;;;0.30;99.90;;;;;;4970278;28;20174;-80
2022/12/03 08:47:24;;;;;;;14.77;6.60;;;0.40;99.90;;;;;;4953720;28;20273;-81
2022/12/03 08:50:11;;;;;;;15.90;8.40;;;0.30;99.90;;;;;;4957997;28;20194;-83
2022/12/03 08:52:36;;;;;;;20.43;6.70;;;0.40;99.90;;;;;;4950453;28;20178;-83
2022/12/03 08:55:33;;;;;;;16.87;10.00;;;0.30;99.90;;;;;;4975502;28;20249;-83
2022/12/03 08:57:59;;;;;;;31.70;13.85;;;0.50;99.90;;;;;;4970623;28;20482;-82
2022/12/03 09:00:25;;;;;;;23.93;10.43;;;0.40;99.90;;;;;;4976061;28;20226;-82
2022/12/03 09:02:53;;;;;;;16.33;9.83;;;0.50;99.90;;;;;;4975404;28;20663;-83
2022/12/03 09:05:28;;;;;;;9.60;5.53;;;0.50;99.90;;;;;;4972579;28;20245;-83
2022/12/03 09:07:54;;;;;;;12.70;8.03;;;0.60;99.90;;;;;;4958731;28;20189;-82
2022/12/03 09:10:20;;;;;;;9.17;6.97;;;0.50;99.90;;;;;;4976042;28;20194;-82
2022/12/03 09:12:45;;;;;;;19.60;8.40;;;0.40;99.90;;;;;;4947029;29;20262;-82
2022/12/03 09:15:11;;;;;;;10.23;7.83;;;0.50;99.90;;;;;;4957889;29;20221;-82
2022/12/03 09:17:36;;;;;;;24.60;7.83;;;0.50;99.90;;;;;;4948205;28;20202;-82
2022/12/03 09:20:03;;;;;;;17.83;8.87;;;3.50;99.90;;;;;;4965310;28;20179;-83
2022/12/03 09:22:29;;;;;;;7.23;5.67;;;;;;;;;;4967188;28;20267;-83
2022/12/03 09:24:55;;;;;;;17.73;8.70;;;;;;;;;;4947260;28;20277;-83
2022/12/03 09:27:21;;;;;;;26.10;6.00;;;0.60;99.90;;;;;;4967241;28;20687;-83
2022/12/03 09:29:47;;;;;;;27.70;10.17;;;1.80;99.90;;;;;;4951728;28;20217;-84
2022/12/03 09:32:13;;;;;;;28.80;11.93;;;0.60;99.90;;;;;;4948465;29;20199;-83
2022/12/03 09:34:39;;;;;;;12.03;7.57;;;;;;;;;;4949732;28;20183;-83
2022/12/03 09:37:05;;;;;;;13.23;4.20;;;0.70;99.90;;;;;;4926013;28;20224;-84
2022/12/03 09:39:31;;;;;;;14.67;5.37;;;;;;;;;;4940830;28;20250;-83
2022/12/03 09:41:56;;;;;;;10.73;6.80;;;0.70;99.90;;;;;;4958547;28;20497;-82
2022/12/03 09:44:22;;;;;;;11.27;5.00;;;0.70;99.90;;;;;;4925697;28;20183;-83
2022/12/03 09:46:48;;;;;;;10.17;6.97;;;1.50;99.90;;;;;;4959749;28;20667;-83
2022/12/03 09:49:17;;;;;;;9.37;6.13;;;0.80;99.90;;;;;;4941556;28;20273;-84
2022/12/03 09:51:43;;;;;;;22.83;7.63;;;0.40;99.90;;;;;;4971329;28;20178;-81
2022/12/03 09:54:11;;;;;;;42.70;7.10;;;3.40;99.90;;;;;;4972610;28;20175;-82
2022/12/03 09:56:37;;;;;;;17.93;7.27;;;0.60;99.90;;;;;;4960684;28;20266;-81
2022/12/03 09:59:11;;;;;;;17.93;6.67;;;0.70;99.90;;;;;;4972264;28;20286;-82
2022/12/03 10:01:36;;;;;;;18.73;7.70;;;0.70;99.90;;;;;;4972879;28;20178;-82
2022/12/03 10:04:02;;;;;;;8.43;5.80;;;0.80;99.90;;;;;;4946109;28;20188;-83
2022/12/03 10:06:28;;;;;;;11.07;6.50;;;2.60;99.90;;;;;;4966269;28;20190;-82
2022/12/03 10:08:54;;;;;;;11.70;8.33;;;0.80;99.90;;;;;;4967162;28;20182;-82
2022/12/03 10:11:23;;;;;;;12.23;7.70;;;0.90;99.90;;;;;;4965619;28;20257;-83
2022/12/03 10:13:49;;;;;;;15.63;7.23;;;3.50;99.90;;;;;;4965488;28;20187;-83
2022/12/03 10:16:19;;;;;;;9.53;6.37;;;2.60;99.90;;;;;;4965521;28;20195;-84
2022/12/03 10:18:48;;;;;;;13.43;6.03;;;0.90;99.90;;;;;;4945563;28;20354;-83
2022/12/03 10:21:22;;;;;;;18.53;7.70;;;2.90;99.90;;;;;;4943580;28;20655;-84
2022/12/03 10:23:49;;;;;;;10.47;5.00;;;0.80;99.90;;;;;;4960305;28;20659;-84
2022/12/03 10:26:15;;;;;;;31.67;7.97;;;2.90;99.90;;;;;;4947512;28;20633;-84
2022/12/03 10:28:45;;;;;;;10.03;7.50;;;1.70;99.90;;;;;;4946526;28;20186;-84
2022/12/03 10:31:12;;;;;;;19.10;7.23;;;1.00;99.90;;;;;;4952992;28;20693;-85
2022/12/03 10:33:44;;;;;;;13.47;7.40;;;1.00;99.90;;;;;;4953396;28;20182;-83
2022/12/03 10:36:19;;;;;;;17.10;5.80;;;1.00;99.90;;;;;;4953028;28;20191;-83
2022/12/03 10:38:46;;;;;;;11.70;6.50;;;1.10;99.90;;;;;;4952425;28;20321;-84
2022/12/03 10:41:31;;;;;;;14.83;8.90;;;2.00;99.90;;;;;;4970707;28;20659;-84
2022/12/03 10:44:15;;;;;;;9.93;5.30;;;1.10;99.90;;;;;;4952398;28;20194;-83
2022/12/03 10:46:41;;;;;;;9.63;5.37;;;;;;;;;;4962346;28;20194;-84
2022/12/03 10:49:17;;;;;;;17.60;7.33;;;1.10;99.90;;;;;;4968250;28;20663;-83
2022/12/03 10:51:45;;;;;;;11.30;6.60;;;1.10;99.90;;;;;;4958232;28;20191;-82
2022/12/03 10:54:18;;;;;;;12.30;5.67;;;1.10;99.90;;;;;;4975486;28;20258;-83
2022/12/03 10:56:44;;;;;;;7.77;5.10;;;2.60;99.90;;;;;;4962037;28;20190;-84
2022/12/03 10:59:15;;;;;;;18.87;10.47;;;1.10;99.90;;;;;;4971482;28;20187;-84
2022/12/03 11:01:41;;;;;;;28.60;11.00;;;1.00;99.90;;;;;;4959893;28;20675;-83
2022/12/03 11:04:33;;;;;;;27.03;9.13;;;1.90;99.90;;;;;;4947087;28;20217;-82
2022/12/03 11:07:01;;;;;;;13.07;8.10;;;1.20;99.90;;;;;;4941152;28;20206;-83
2022/12/03 11:09:31;;;;;;;25.60;7.87;;;1.10;99.90;;;;;;4970367;28;20657;-83
2022/12/03 11:12:16;;;;;;;13.83;6.50;;;1.10;99.90;;;;;;4964066;28;20187;-83
2022/12/03 11:14:49;;;;;;;11.50;5.97;;;1.30;99.90;;;;;;4946616;28;20227;-84
2022/12/03 11:17:38;;;;;;;15.70;7.27;;;3.70;99.90;;;;;;4946344;28;20687;-84
2022/12/03 11:20:25;;;;;;;11.83;7.40;;;1.30;99.90;;;;;;4964500;28;20186;-82
2022/12/03 11:22:55;;;;;;;30.73;10.37;;;1.40;99.90;;;;;;4916452;28;20190;-83
2022/12/03 11:25:23;;;;;;;35.30;10.07;;;1.40;99.90;;;;;;4965940;28;20235;-84
2022/12/03 11:28:30;;;;;;;13.73;7.23;;;1.40;99.90;;;;;;4965645;28;20671;-84
2022/12/03 11:31:01;;;;;;;12.83;6.20;;;1.40;99.90;;;;;;4961845;28;20185;-83
2022/12/03 11:33:33;;;;;;;34.30;7.27;;;1.30;99.90;;;;;;4943485;28;20185;-84
2022/12/03 11:36:01;;;;;;;14.03;8.33;;;1.40;99.90;;;;;;4958144;28;20179;-84
2022/12/03 11:38:36;;;;;;;29.40;13.73;;;1.40;99.90;;;;;;4962795;28;20246;-84
2022/12/03 11:41:15;;;;;;;14.90;7.67;;;3.90;99.90;;;;;;4972503;28;20185;-84
2022/12/03 11:43:56;;;;;;;12.33;5.70;;;1.30;99.90;;;;;;4972285;28;20174;-84
2022/12/03 11:46:45;;;;;;;17.37;9.13;;;1.30;99.90;;;;;;4954995;28;20177;-85
2022/12/03 11:49:30;;;;;;;16.27;9.37;;;1.40;99.90;;;;;;4972089;28;20241;-83
2022/12/03 11:51:59;;;;;;;10.47;7.90;;;1.40;99.90;;;;;;4971579;28;20189;-83
2022/12/03 11:54:25;;;;;;;16.03;7.97;;;;;;;;;;4971776;28;20171;-83
2022/12/03 11:56:51;;;;;;;20.73;8.50;;;;;;;;;;4973239;28;20210;-82
2022/12/03 11:59:18;;;;;;;25.27;13.80;;;1.40;99.90;;;;;;4955043;28;20561;-83
2022/12/03 12:01:44;;;;;;;29.07;14.73;;;;;;;;;;4955325;28;20187;-83
2022/12/03 12:04:34;;;;;;;27.70;12.83;;;1.40;99.90;;;;;;4973383;28;20186;-83
2022/12/03 12:07:00;;;;;;;35.00;18.00;;;;;;;;;;4972005;28;20210;-84
2022/12/03 12:09:49;;;;;;;28.43;11.63;;;1.40;99.90;;;;;;4971817;28;20656;-83
2022/12/03 12:12:37;;;;;;;58.77;20.97;;;1.40;99.90;;;;;;4971325;28;20179;-83
2022/12/03 12:15:37;;;;;;;43.43;16.40;;;1.20;99.90;;;;;;4972129;28;20184;-83
2022/12/03 12:18:37;;;;;;;16.87;8.40;;;1.40;99.90;;;;;;4971301;28;20210;-83
2022/12/03 12:21:37;;;;;;;65.40;20.70;;;1.50;99.90;;;;;;4971085;28;20191;-84
2022/12/03 12:24:31;;;;;;;46.13;19.53;;;1.50;99.90;;;;;;4954864;28;20590;-84
2022/12/03 12:27:01;;;;;;;31.03;10.93;;;1.50;99.90;;;;;;4964392;28;20191;-83
2022/12/03 12:29:27;;;;;;;36.93;15.97;;;;;;;;;;4963678;28;20276;-83
2022/12/03 12:32:08;;;;;;;61.30;23.33;;;1.50;99.90;;;;;;4954987;28;20187;-84
2022/12/03 12:34:42;;;;;;;56.20;21.03;;;3.60;99.90;;;;;;4945094;28;20654;-84
2022/12/03 12:37:16;;;;;;;79.13;26.43;;;1.50;99.90;;;;;;4962076;28;20209;-83
2022/12/03 12:39:41;;;;;;;17.13;8.47;;;3.60;99.90;;;;;;4955657;28;20313;-83
2022/12/03 12:42:29;;;;;;;19.23;10.10;;;2.40;99.90;;;;;;4973980;28;20285;-82
2022/12/03 12:45:12;;;;;;;10.40;8.30;;;1.40;99.90;;;;;;4957940;28;20315;-82
2022/12/03 12:47:55;;;;;;;90.23;37.37;;;1.50;99.90;;;;;;4947272;28;20206;-83
2022/12/03 12:50:20;;;;;;;91.67;34.60;;;1.50;99.90;;;;;;4947059;28;20179;-83
2022/12/03 12:52:50;;;;;;;31.33;15.93;;;1.40;99.90;;;;;;4942606;29;20238;-83
2022/12/03 12:55:16;;;;;;;76.07;36.47;;;;;;;;;;4960603;28;20230;-83
2022/12/03 12:57:42;;;;;;;25.50;11.90;;;1.50;99.90;;;;;;4963677;28;20206;-84
2022/12/03 13:00:17;;;;;;;78.03;28.07;;;1.30;99.90;;;;;;4945779;28;20191;-82
2022/12/03 13:02:47;;;;;;;65.97;23.73;;;1.50;99.90;;;;;;4947451;28;20264;-84
2022/12/03 13:05:13;;;;;;;354.50;117.40;;;;;;;;;;4969653;28;20194;-82
2022/12/03 13:07:40;;;;;;;220.30;78.27;;;1.60;99.90;;;;;;4959105;28;20188;-85
2022/12/03 13:10:32;;;;;;;212.00;63.37;;;1.60;99.90;;;;;;4924175;28;20664;-83
2022/12/03 13:13:07;;;;;;;180.93;55.30;;;3.80;99.90;;;;;;4969642;28;20214;-84
2022/12/03 13:15:41;;;;;;;62.57;25.30;;;1.60;99.90;;;;;;4964038;28;20190;-83
2022/12/03 13:18:26;;;;;;;28.13;9.20;;;1.60;99.90;;;;;;4964200;28;20203;-82
2022/12/03 13:20:53;;;;;;;64.83;27.60;;;1.50;99.90;;;;;;4964576;28;20190;-83